createdAt,value
2018-05-12T18:38:39.049Z,97417.55
2018-05-12T18:41:08.562Z,97414.70
2018-05-12T18:43:38.069Z,97420.66
2018-05-12T18:46:07.919Z,97425.90
2018-05-12T18:48:43.214Z,97428.05
2018-05-12T18:51:12.612Z,97433.30
2018-05-12T18:53:43.566Z,97433.34
2018-05-12T18:56:13.325Z,97424.08
2018-05-12T18:58:43.045Z,97423.96
2018-05-12T19:01:12.888Z,97415.50
2018-05-12T19:03:42.514Z,97416.56
2018-05-12T19:07:37.354Z,97429.31
2018-05-12T19:10:07.438Z,97429.19
2018-05-12T19:12:37.892Z,97433.70
2018-05-12T19:15:07.551Z,97437.42
2018-05-12T19:17:37.740Z,97418.59
2018-05-12T19:20:07.654Z,97437.76
2018-05-12T19:22:38.283Z,97441.53
2018-05-12T19:25:07.892Z,97439.09
2018-05-12T19:27:37.802Z,97439.34
2018-05-12T19:30:07.381Z,97443.51
2018-05-12T19:32:37.373Z,97436.90
2018-05-12T19:35:36.146Z,97430.81
2018-05-12T19:38:06.597Z,97423.80
2018-05-12T19:40:36.819Z,97427.22
2018-05-12T19:43:09.402Z,97413.78
2018-05-12T19:45:39.534Z,97411.00
2018-05-12T19:48:10.243Z,97410.14
2018-05-12T19:50:39.814Z,97401.89
2018-05-12T19:53:12.533Z,97409.55
2018-05-12T19:55:43.844Z,97414.87
2018-05-12T19:58:15.286Z,97417.43
2018-05-12T20:00:44.878Z,97417.64
2018-05-12T20:03:15.475Z,97394.19
2018-05-12T20:08:36.665Z,97410.53
2018-05-12T20:11:06.230Z,97395.35
2018-05-12T20:13:35.965Z,97407.91
2018-05-12T20:16:14.296Z,97406.06
2018-05-12T20:18:47.014Z,97405.91
2018-05-12T20:21:18.513Z,97398.95
2018-05-12T20:23:48.993Z,97401.73
2018-05-12T20:26:19.793Z,97406.95
2018-05-12T20:28:50.532Z,97410.29
2018-05-12T20:31:19.801Z,97408.69
2018-05-12T20:33:50.251Z,97412.45
2018-05-12T20:36:20.519Z,97422.94
2018-05-12T20:38:54.159Z,97414.75
2018-05-12T20:41:24.773Z,97406.99
2018-05-12T20:44:00.515Z,97407.77
2018-05-12T20:48:39.235Z,97398.99
2018-05-12T20:51:09.073Z,97397.79
2018-05-12T20:53:39.610Z,97405.48
2018-05-12T20:56:11.105Z,97399.12
2018-05-12T20:58:42.535Z,97403.70
2018-05-12T21:01:13.057Z,97408.86
2018-05-12T21:04:05.806Z,97417.59
2018-05-12T21:06:37.536Z,97418.19
2018-05-12T21:09:08.244Z,97416.95
2018-05-12T21:11:37.747Z,97408.80
2018-05-12T21:14:10.082Z,97412.56
2018-05-12T21:16:39.973Z,97408.61
2018-05-12T21:19:09.574Z,97407.65
2018-05-12T21:21:39.397Z,97410.64
2018-05-12T21:24:09.707Z,97402.65
2018-05-12T21:26:39.235Z,97401.84
2018-05-12T21:29:09.958Z,97396.56
2018-05-12T21:34:54.983Z,97409.44
2018-05-12T21:37:26.182Z,97405.32
2018-05-12T21:40:52.501Z,97406.12
2018-05-12T21:43:23.293Z,97412.17
2018-05-12T21:45:53.849Z,97409.27
2018-05-12T21:48:24.026Z,97410.89
2018-05-12T21:50:53.717Z,97394.06
2018-05-12T21:53:24.799Z,97421.72
2018-05-12T22:07:00.712Z,97408.38
2018-05-12T22:09:38.052Z,97414.04
2018-05-12T22:12:08.715Z,97411.16
2018-05-12T22:14:39.439Z,97413.58
2018-05-12T22:17:09.740Z,97413.38
2018-05-12T22:21:30.686Z,97417.55
2018-05-12T22:24:00.756Z,97418.29
2018-05-12T22:26:31.745Z,97423.57
2018-05-12T22:29:02.663Z,97429.75
2018-05-12T22:31:33.757Z,97438.59
2018-05-12T22:34:04.741Z,97433.83
2018-05-12T22:36:36.598Z,97436.09
2018-05-12T22:39:07.059Z,97430.13
2018-05-12T22:41:36.793Z,97432.94
2018-05-12T22:44:07.966Z,97425.93
2018-05-12T22:47:25.613Z,97425.90
2018-05-12T22:49:55.734Z,97422.99
2018-05-12T22:52:25.655Z,97428.21
2018-05-12T22:54:55.766Z,97420.34
2018-05-12T22:57:25.694Z,97416.23
2018-05-12T22:59:55.655Z,97419.50
2018-05-12T23:02:25.576Z,97420.30
2018-05-12T23:04:55.814Z,97421.20
2018-05-12T23:07:26.743Z,97419.87
2018-05-12T23:11:38.489Z,97415.91
2018-05-12T23:14:08.440Z,97421.06
2018-05-12T23:18:30.589Z,97416.25
